Time;durP1;ratioP1;P1;durP2;ratioP2;P2;SDS_P1;SDS_P2;PMS_P1;PMS_P2;Temp;Humidity;BMP_temperature;BMP_pressure;BME280_temperature;BME280_humidity;BME280_pressure;Samples;Min_cycle;Max_cycle;Signal;HPM_P1;HPM_P2
2021/01/09 00:02:08;;;;;;;7.35;5.07;;;0.90;99.90;;;;;;5054574;28;20217;-61
2021/01/09 00:04:34;;;;;;;7.32;4.68;;;0.80;99.90;;;;;;5054269;28;20182;-61
2021/01/09 00:07:00;;;;;;;7.85;4.97;;;0.90;99.90;;;;;;5054558;28;20205;-62
2021/01/09 00:09:26;;;;;;;6.68;4.60;;;0.90;99.90;;;;;;5054223;28;20178;-62
2021/01/09 00:11:52;;;;;;;7.82;5.05;;;0.80;99.90;;;;;;5054111;28;20198;-62
2021/01/09 00:14:20;;;;;;;9.13;5.28;;;0.90;99.90;;;;;;5054106;28;20651;-62
2021/01/09 00:16:47;;;;;;;8.43;5.68;;;0.80;99.90;;;;;;5054256;28;20189;-62
2021/01/09 00:19:13;;;;;;;8.02;5.00;;;0.90;99.90;;;;;;5053786;28;20179;-62
2021/01/09 00:21:40;;;;;;;8.63;5.50;;;0.90;99.90;;;;;;5053847;28;20191;-62
2021/01/09 00:24:09;;;;;;;7.88;5.13;;;0.90;99.90;;;;;;5053740;28;20194;-62
2021/01/09 00:26:35;;;;;;;6.40;4.28;;;0.90;99.90;;;;;;5054046;28;20222;-62
2021/01/09 00:29:03;;;;;;;7.50;4.65;;;0.90;99.90;;;;;;5053630;28;20639;-62
2021/01/09 00:31:29;;;;;;;7.47;4.30;;;0.90;99.90;;;;;;5053776;28;20503;-62
2021/01/09 00:33:55;;;;;;;7.30;4.70;;;1.00;99.90;;;;;;5053324;28;20187;-61
2021/01/09 00:36:21;;;;;;;7.13;4.75;;;0.90;99.90;;;;;;5054404;28;20201;-61
2021/01/09 00:38:47;;;;;;;7.57;4.75;;;1.00;99.90;;;;;;5047323;28;20178;-61
2021/01/09 00:41:14;;;;;;;8.07;5.13;;;1.00;99.90;;;;;;5053532;28;20662;-62
2021/01/09 00:43:40;;;;;;;6.93;4.80;;;0.90;99.90;;;;;;5053942;28;20222;-62
2021/01/09 00:46:06;;;;;;;6.75;4.65;;;0.90;99.90;;;;;;5051993;28;20175;-62
2021/01/09 00:48:32;;;;;;;7.60;4.85;;;0.90;99.90;;;;;;5053251;28;20256;-62
2021/01/09 00:50:58;;;;;;;9.02;5.15;;;0.90;99.90;;;;;;5053459;28;20627;-62
2021/01/09 00:53:24;;;;;;;9.27;4.97;;;0.90;99.90;;;;;;5053461;28;20193;-62
2021/01/09 00:55:51;;;;;;;7.47;4.95;;;0.90;99.90;;;;;;5053308;28;20171;-62
2021/01/09 00:58:17;;;;;;;7.13;4.80;;;0.90;99.90;;;;;;5053711;28;20167;-62
2021/01/09 01:00:43;;;;;;;7.35;4.95;;;0.90;99.90;;;;;;5053739;28;20171;-62
2021/01/09 01:03:09;;;;;;;9.48;5.57;;;0.90;99.90;;;;;;5052602;28;20242;-62
2021/01/09 01:05:35;;;;;;;7.80;5.40;;;1.00;99.90;;;;;;5053015;28;20175;-61
2021/01/09 01:08:01;;;;;;;8.18;5.63;;;1.00;99.90;;;;;;5052497;28;20190;-61
2021/01/09 01:10:27;;;;;;;8.88;5.65;;;1.00;99.90;;;;;;5052955;28;20179;-61
2021/01/09 01:12:55;;;;;;;9.50;5.90;;;0.90;99.90;;;;;;5052138;28;20207;-61
2021/01/09 01:15:21;;;;;;;9.00;5.95;;;0.90;99.90;;;;;;5053375;28;20174;-61
2021/01/09 01:17:48;;;;;;;8.85;5.03;;;1.00;99.90;;;;;;5053286;28;20511;-62
2021/01/09 01:20:14;;;;;;;9.35;6.43;;;1.00;99.90;;;;;;5052080;28;20178;-62
2021/01/09 01:22:40;;;;;;;9.98;6.13;;;0.90;99.90;;;;;;5052215;28;20202;-62
2021/01/09 01:25:06;;;;;;;10.02;6.28;;;0.90;99.90;;;;;;5051752;28;20197;-62
2021/01/09 01:27:33;;;;;;;9.15;6.00;;;1.00;99.90;;;;;;5052105;28;20817;-62
2021/01/09 01:29:59;;;;;;;9.43;5.78;;;1.00;99.90;;;;;;5052554;28;20193;-61
2021/01/09 01:32:25;;;;;;;8.60;5.90;;;0.90;99.90;;;;;;5053325;28;20174;-62
2021/01/09 01:34:51;;;;;;;9.55;5.78;;;1.00;99.90;;;;;;5051504;28;20183;-62
2021/01/09 01:37:17;;;;;;;8.10;5.47;;;1.00;99.90;;;;;;5052069;28;20186;-62
2021/01/09 01:39:43;;;;;;;8.02;5.55;;;0.90;99.90;;;;;;5052714;28;20177;-61
2021/01/09 01:42:09;;;;;;;8.07;5.13;;;1.00;99.90;;;;;;5052622;28;20217;-62
2021/01/09 01:44:35;;;;;;;7.72;4.93;;;1.00;99.90;;;;;;5052505;28;20666;-61
2021/01/09 01:47:02;;;;;;;8.38;4.95;;;0.90;99.90;;;;;;5052149;28;20730;-61
2021/01/09 01:49:28;;;;;;;8.57;5.45;;;1.00;99.90;;;;;;5051976;28;20190;-62
2021/01/09 01:51:55;;;;;;;10.30;5.35;;;1.00;99.90;;;;;;5051363;28;20537;-62
2021/01/09 01:54:21;;;;;;;7.47;5.30;;;0.90;99.90;;;;;;5052493;28;20194;-61
2021/01/09 01:56:52;;;;;;;7.32;5.22;;;1.00;99.90;;;;;;5015468;28;20176;-61
2021/01/09 01:59:18;;;;;;;7.68;5.13;;;1.00;99.90;;;;;;5032660;28;20624;-62
2021/01/09 02:01:44;;;;;;;8.15;5.30;;;1.00;99.90;;;;;;5035921;28;20183;-62
2021/01/09 02:04:11;;;;;;;7.30;4.80;;;1.00;99.90;;;;;;5050387;28;20189;-62
2021/01/09 02:06:37;;;;;;;8.32;5.57;;;1.00;99.90;;;;;;5052423;28;20185;-62
2021/01/09 02:09:07;;;;;;;7.50;5.07;;;1.00;99.90;;;;;;5051264;28;20177;-62
2021/01/09 02:11:55;;;;;;;8.63;5.38;;;1.00;99.90;;;;;;5052695;28;20171;-61
2021/01/09 02:14:39;;;;;;;7.38;5.05;;;1.00;99.90;;;;;;5035361;28;20213;-61
2021/01/09 02:17:09;;;;;;;8.38;5.53;;;1.00;99.90;;;;;;5051830;28;20642;-62
2021/01/09 02:19:38;;;;;;;8.50;5.63;;;1.00;99.90;;;;;;5051524;28;20183;-61
2021/01/09 02:22:12;;;;;;;7.95;5.38;;;1.00;99.90;;;;;;5050543;28;20206;-60
2021/01/09 02:24:38;;;;;;;8.13;5.03;;;1.00;99.90;;;;;;5051766;28;20611;-60
2021/01/09 02:27:08;;;;;;;9.75;5.82;;;1.00;99.90;;;;;;5051035;28;20211;-60
2021/01/09 02:29:44;;;;;;;9.77;5.82;;;1.00;99.90;;;;;;5052053;28;20178;-60
2021/01/09 02:32:11;;;;;;;9.20;5.80;;;1.00;99.90;;;;;;5042665;28;20178;-60
2021/01/09 02:34:48;;;;;;;7.95;5.18;;;0.90;99.90;;;;;;5050320;28;20181;-60
2021/01/09 02:37:14;;;;;;;10.43;6.30;;;0.90;99.90;;;;;;5051651;28;20178;-60
2021/01/09 02:39:41;;;;;;;9.80;6.00;;;0.90;99.90;;;;;;5033882;28;20179;-60
2021/01/09 02:42:07;;;;;;;10.27;6.32;;;1.00;99.90;;;;;;5051511;28;20173;-60
2021/01/09 02:44:33;;;;;;;11.88;7.57;;;1.00;99.90;;;;;;5050731;28;20197;-60
2021/01/09 02:46:59;;;;;;;11.88;7.10;;;1.00;99.90;;;;;;5050833;28;20163;-60
2021/01/09 02:49:25;;;;;;;11.93;7.57;;;0.90;99.90;;;;;;5052129;28;20182;-60
2021/01/09 02:51:52;;;;;;;14.48;7.93;;;1.00;99.90;;;;;;5052067;28;20187;-61
2021/01/09 02:54:18;;;;;;;11.73;7.20;;;0.90;99.90;;;;;;5051665;28;20182;-60
2021/01/09 02:56:44;;;;;;;12.20;7.30;;;0.90;99.90;;;;;;5051560;28;20186;-60
2021/01/09 02:59:10;;;;;;;12.32;7.70;;;0.90;99.90;;;;;;5050989;28;20175;-61
2021/01/09 03:01:36;;;;;;;14.02;7.20;;;0.90;99.90;;;;;;5051558;28;20209;-60
2021/01/09 03:04:02;;;;;;;10.70;7.10;;;0.90;99.90;;;;;;5050643;28;20655;-60
2021/01/09 03:06:28;;;;;;;11.10;6.95;;;0.90;99.90;;;;;;5049858;28;20183;-60
2021/01/09 03:08:55;;;;;;;10.23;6.55;;;0.90;99.90;;;;;;5051509;28;20515;-60
2021/01/09 03:11:22;;;;;;;11.70;7.22;;;1.00;99.90;;;;;;5051654;28;20605;-60
2021/01/09 03:13:48;;;;;;;12.80;7.20;;;1.00;99.90;;;;;;5051231;28;22306;-60
2021/01/09 03:16:14;;;;;;;11.00;6.57;;;1.00;99.90;;;;;;5050929;28;20178;-60
2021/01/09 03:18:40;;;;;;;10.05;6.55;;;1.00;99.90;;;;;;5051212;28;20183;-60
2021/01/09 03:21:07;;;;;;;11.10;6.97;;;1.00;99.90;;;;;;5051364;28;20549;-60
2021/01/09 03:23:33;;;;;;;11.75;6.93;;;1.00;99.90;;;;;;5051608;28;20225;-60
2021/01/09 03:25:59;;;;;;;10.90;6.85;;;1.00;99.90;;;;;;5051161;28;20578;-60
2021/01/09 03:28:25;;;;;;;11.98;6.90;;;1.00;99.90;;;;;;5051369;28;20186;-60
2021/01/09 03:30:52;;;;;;;10.63;6.78;;;0.90;99.90;;;;;;5051232;28;20171;-60
2021/01/09 03:33:18;;;;;;;10.55;7.15;;;1.00;99.90;;;;;;5051205;28;20179;-60
2021/01/09 03:35:44;;;;;;;11.48;6.85;;;0.90;99.90;;;;;;5053414;28;20197;-60
2021/01/09 03:38:10;;;;;;;11.65;6.65;;;0.90;99.90;;;;;;5053615;28;20183;-60
2021/01/09 03:40:37;;;;;;;11.48;6.88;;;1.00;99.90;;;;;;5054814;28;20182;-60
2021/01/09 03:43:03;;;;;;;12.52;6.72;;;1.00;99.90;;;;;;5054567;28;20669;-60
2021/01/09 03:45:29;;;;;;;11.98;6.65;;;1.00;99.90;;;;;;5054838;28;20174;-60
2021/01/09 03:47:55;;;;;;;10.68;6.63;;;1.00;99.90;;;;;;5054989;28;20178;-60
2021/01/09 03:50:21;;;;;;;9.40;6.40;;;1.00;99.90;;;;;;5054376;28;20183;-60
2021/01/09 03:52:48;;;;;;;11.13;6.53;;;1.00;99.90;;;;;;5055040;28;20166;-60
2021/01/09 03:55:14;;;;;;;8.65;5.97;;;0.90;99.90;;;;;;5055123;28;20647;-60
2021/01/09 03:57:40;;;;;;;11.10;6.55;;;0.90;99.90;;;;;;5054626;28;20183;-60
2021/01/09 04:00:07;;;;;;;9.32;6.00;;;0.90;99.90;;;;;;5053974;28;20197;-60
2021/01/09 04:02:33;;;;;;;12.02;6.32;;;0.90;99.90;;;;;;5054418;28;20210;-60
2021/01/09 04:05:02;;;;;;;10.52;6.97;;;1.00;99.90;;;;;;5053738;28;20177;-60
2021/01/09 04:07:28;;;;;;;10.32;6.07;;;0.90;99.90;;;;;;5045300;28;20535;-60
2021/01/09 04:09:54;;;;;;;9.77;6.00;;;0.80;99.90;;;;;;5054087;28;20201;-60
2021/01/09 04:12:21;;;;;;;9.95;5.90;;;0.80;99.90;;;;;;5054084;28;20178;-60
2021/01/09 04:14:47;;;;;;;9.70;6.28;;;0.80;99.90;;;;;;5054268;28;20195;-60
2021/01/09 04:17:13;;;;;;;10.85;6.50;;;0.80;99.90;;;;;;5054112;28;20510;-60
2021/01/09 04:19:39;;;;;;;10.27;6.28;;;0.70;99.90;;;;;;5053963;28;20179;-60
2021/01/09 04:22:05;;;;;;;8.95;5.30;;;0.80;99.90;;;;;;5054349;28;20182;-60
2021/01/09 04:24:31;;;;;;;7.75;5.13;;;0.70;99.90;;;;;;5054247;28;20253;-60
2021/01/09 04:26:59;;;;;;;8.77;6.00;;;0.70;99.90;;;;;;5053248;28;20206;-60
2021/01/09 04:29:26;;;;;;;10.20;6.65;;;0.70;99.90;;;;;;5052935;28;20194;-59
2021/01/09 04:31:52;;;;;;;8.88;5.85;;;0.60;99.90;;;;;;5032857;28;20186;-60
2021/01/09 04:34:19;;;;;;;9.10;5.95;;;0.60;99.90;;;;;;5046936;28;20186;-60
2021/01/09 04:36:45;;;;;;;9.40;5.85;;;0.60;99.90;;;;;;5053419;28;20640;-60
2021/01/09 04:39:11;;;;;;;9.30;6.10;;;0.60;99.90;;;;;;5052423;28;20195;-60
2021/01/09 04:41:38;;;;;;;10.70;6.72;;;0.60;99.90;;;;;;5053567;28;20189;-60
2021/01/09 04:44:05;;;;;;;11.13;6.38;;;0.50;99.90;;;;;;5053541;28;20210;-59
2021/01/09 04:46:37;;;;;;;11.00;6.78;;;0.50;99.90;;;;;;5053315;28;20163;-60
2021/01/09 04:49:04;;;;;;;10.60;6.43;;;0.40;99.90;;;;;;5052240;28;20515;-59
2021/01/09 04:51:30;;;;;;;9.88;6.60;;;0.40;99.90;;;;;;5053335;28;20181;-60
2021/01/09 04:53:56;;;;;;;12.80;6.95;;;0.40;99.90;;;;;;5052544;28;20185;-60
2021/01/09 04:56:22;;;;;;;12.52;7.88;;;0.40;99.90;;;;;;5036044;28;20182;-60
2021/01/09 04:58:48;;;;;;;10.05;6.68;;;0.50;99.90;;;;;;5035239;28;20178;-60
2021/01/09 05:01:14;;;;;;;11.10;6.80;;;0.40;99.90;;;;;;5052926;28;20183;-60
2021/01/09 05:03:40;;;;;;;11.45;7.70;;;0.40;99.90;;;;;;5052795;28;20225;-60
2021/01/09 05:06:07;;;;;;;12.20;7.82;;;0.30;99.90;;;;;;5052971;28;20202;-60
2021/01/09 05:08:33;;;;;;;11.45;7.47;;;0.30;99.90;;;;;;5051910;28;20647;-60
2021/01/09 05:10:59;;;;;;;11.68;7.20;;;0.20;99.90;;;;;;5052579;28;20190;-60
2021/01/09 05:13:25;;;;;;;10.68;7.18;;;0.20;99.90;;;;;;5053407;28;20217;-60
2021/01/09 05:15:54;;;;;;;11.27;7.43;;;0.20;99.90;;;;;;5035436;28;20179;-60
2021/01/09 05:18:20;;;;;;;12.40;7.40;;;0.20;99.90;;;;;;5053437;28;20178;-60
2021/01/09 05:20:46;;;;;;;12.10;7.55;;;0.20;99.90;;;;;;5053555;28;20651;-60
2021/01/09 05:23:13;;;;;;;12.52;7.55;;;0.20;99.90;;;;;;5052732;28;20210;-60
2021/01/09 05:25:39;;;;;;;13.95;7.40;;;0.20;99.90;;;;;;5051073;28;20205;-60
2021/01/09 05:28:06;;;;;;;11.70;7.43;;;0.20;99.90;;;;;;5035064;28;20201;-60
2021/01/09 05:30:32;;;;;;;12.68;7.78;;;0.20;99.90;;;;;;5052839;28;20174;-60
2021/01/09 05:33:00;;;;;;;12.98;7.53;;;0.20;99.90;;;;;;5050903;28;20205;-60
2021/01/09 05:35:30;;;;;;;13.43;7.60;;;0.20;99.90;;;;;;5052709;28;20194;-60
2021/01/09 05:37:56;;;;;;;12.95;6.90;;;0.20;99.90;;;;;;5052312;28;20175;-60
2021/01/09 05:40:22;;;;;;;13.00;8.02;;;0.30;99.90;;;;;;5053262;28;20658;-61
2021/01/09 05:42:50;;;;;;;12.68;7.93;;;0.30;99.90;;;;;;5053142;28;20205;-60
2021/01/09 05:45:17;;;;;;;15.00;7.70;;;0.30;99.90;;;;;;5051127;28;20895;-60
2021/01/09 05:47:43;;;;;;;12.05;7.78;;;0.30;99.90;;;;;;5051476;28;20551;-60
2021/01/09 05:50:09;;;;;;;13.68;7.40;;;0.30;99.90;;;;;;5034062;28;20647;-60
2021/01/09 05:52:39;;;;;;;10.93;7.40;;;0.30;99.90;;;;;;5051019;28;20631;-60
2021/01/09 05:55:06;;;;;;;12.43;7.32;;;0.30;99.90;;;;;;5052281;28;20974;-60
2021/01/09 05:57:33;;;;;;;11.35;7.07;;;0.30;99.90;;;;;;5051893;28;20178;-60
2021/01/09 06:00:01;;;;;;;13.88;7.47;;;0.30;99.90;;;;;;5050160;28;20187;-60
2021/01/09 06:02:27;;;;;;;11.13;6.82;;;0.20;99.90;;;;;;5051975;28;20175;-60
2021/01/09 06:04:59;;;;;;;14.50;8.52;;;0.20;99.90;;;;;;5051617;28;20218;-60
2021/01/09 06:07:26;;;;;;;13.73;8.15;;;0.20;99.90;;;;;;5051899;28;20663;-60
2021/01/09 06:10:08;;;;;;;14.13;8.13;;;0.20;99.90;;;;;;5034068;28;20643;-60
2021/01/09 06:12:52;;;;;;;13.55;7.80;;;0.20;99.90;;;;;;5052373;28;20162;-60
2021/01/09 06:15:18;;;;;;;13.38;7.90;;;0.20;99.90;;;;;;5036072;28;20163;-60
2021/01/09 06:17:44;;;;;;;11.50;7.82;;;0.20;99.90;;;;;;5034010;28;20174;-61
2021/01/09 06:20:11;;;;;;;11.63;6.72;;;0.10;99.90;;;;;;5051172;28;20178;-59
2021/01/09 06:22:38;;;;;;;11.90;7.28;;;0.10;99.90;;;;;;5050189;28;20183;-60
2021/01/09 06:25:04;;;;;;;13.35;7.55;;;0.00;99.90;;;;;;5050758;28;20179;-60
2021/01/09 06:27:31;;;;;;;13.10;7.45;;;0.10;99.90;;;;;;5033842;28;20209;-60
2021/01/09 06:30:04;;;;;;;14.35;8.18;;;0.00;99.90;;;;;;5051548;28;20635;-59
2021/01/09 06:32:36;;;;;;;13.45;7.93;;;0.00;99.90;;;;;;5050903;28;20535;-59
2021/01/09 06:35:07;;;;;;;13.55;7.97;;;0.00;99.90;;;;;;5049902;28;20186;-60
2021/01/09 06:37:33;;;;;;;12.13;7.80;;;0.00;99.90;;;;;;5051647;28;20183;-60
2021/01/09 06:39:59;;;;;;;14.82;8.80;;;-0.10;99.90;;;;;;5050382;28;20186;-59
2021/01/09 06:42:25;;;;;;;12.68;7.78;;;-0.10;99.90;;;;;;5051672;28;20662;-59
2021/01/09 06:44:52;;;;;;;15.02;8.43;;;-0.10;99.90;;;;;;5050073;28;20213;-59
2021/01/09 06:47:26;;;;;;;14.13;8.27;;;-0.10;99.90;;;;;;5051741;28;20171;-59
2021/01/09 06:49:53;;;;;;;12.88;7.65;;;-0.10;99.90;;;;;;5051443;28;20179;-59
2021/01/09 06:52:19;;;;;;;14.32;7.88;;;0.00;99.90;;;;;;5050353;28;20167;-59
2021/01/09 06:54:45;;;;;;;16.33;9.15;;;-0.10;99.90;;;;;;5051080;28;20624;-59
2021/01/09 06:57:15;;;;;;;16.67;9.43;;;-0.10;99.90;;;;;;5051375;28;20201;-59
2021/01/09 06:59:51;;;;;;;16.13;7.78;;;-0.10;99.90;;;;;;5051557;28;20178;-59
2021/01/09 07:02:26;;;;;;;16.67;8.57;;;0.00;99.90;;;;;;5050264;28;20174;-59
2021/01/09 07:04:59;;;;;;;17.85;8.98;;;-0.10;99.90;;;;;;5051164;28;20541;-59
2021/01/09 07:07:54;;;;;;;16.25;8.90;;;-0.10;99.90;;;;;;5051476;28;20162;-59
2021/01/09 07:10:24;;;;;;;18.05;8.85;;;-0.10;99.90;;;;;;5052305;28;20170;-59
2021/01/09 07:12:57;;;;;;;16.90;9.77;;;-0.10;99.90;;;;;;5054559;28;20197;-59
2021/01/09 07:15:25;;;;;;;15.25;8.18;;;-0.20;99.90;;;;;;5052702;28;20170;-59
2021/01/09 07:18:02;;;;;;;17.20;9.38;;;-0.20;99.90;;;;;;5054503;28;20525;-59
2021/01/09 07:20:32;;;;;;;15.30;8.65;;;-0.20;99.90;;;;;;5054027;28;20166;-59
2021/01/09 07:23:09;;;;;;;16.55;8.50;;;-0.20;99.90;;;;;;5053660;28;20550;-59
2021/01/09 07:25:38;;;;;;;19.73;9.13;;;-0.10;99.90;;;;;;5053745;28;20197;-59
2021/01/09 07:28:12;;;;;;;17.60;8.45;;;-0.20;99.90;;;;;;5058247;28;20212;-60
2021/01/09 07:30:38;;;;;;;17.15;8.70;;;-0.20;99.90;;;;;;5058070;28;20174;-59
2021/01/09 07:33:06;;;;;;;16.35;8.75;;;-0.10;99.90;;;;;;5054880;28;20179;-60
2021/01/09 07:35:32;;;;;;;18.13;8.80;;;-0.10;99.90;;;;;;5054850;28;20174;-60
2021/01/09 07:38:00;;;;;;;16.27;9.10;;;-0.10;99.90;;;;;;5053060;28;20190;-59
2021/01/09 07:40:34;;;;;;;15.15;8.43;;;-0.20;99.90;;;;;;5055182;28;20179;-60
2021/01/09 07:43:00;;;;;;;17.17;9.15;;;-0.10;99.90;;;;;;5053594;28;20186;-59
2021/01/09 07:45:32;;;;;;;18.73;10.15;;;-0.10;99.90;;;;;;5054751;28;20190;-60
2021/01/09 07:47:59;;;;;;;17.42;9.50;;;-0.10;99.90;;;;;;5054474;28;20174;-60
2021/01/09 07:50:25;;;;;;;19.42;9.82;;;-0.20;99.90;;;;;;5055107;28;20245;-60
2021/01/09 07:53:06;;;;;;;17.42;9.15;;;-0.10;99.90;;;;;;5055226;28;20174;-59
2021/01/09 07:55:45;;;;;;;19.27;9.88;;;-0.10;99.90;;;;;;5054782;28;20202;-59
2021/01/09 07:58:12;;;;;;;18.90;10.10;;;-0.10;99.90;;;;;;5053594;28;20190;-60
2021/01/09 08:00:44;;;;;;;19.65;10.68;;;-0.10;99.90;;;;;;5053693;28;20175;-59
2021/01/09 08:03:11;;;;;;;18.05;9.85;;;-0.10;99.90;;;;;;5052583;28;20186;-59
2021/01/09 08:05:37;;;;;;;23.52;10.13;;;-0.10;99.90;;;;;;5053237;28;20194;-60
2021/01/09 08:08:04;;;;;;;19.58;10.52;;;-0.10;99.90;;;;;;5054542;28;20166;-59
2021/01/09 08:10:33;;;;;;;18.38;10.25;;;-0.10;99.90;;;;;;5036901;28;20175;-60
2021/01/09 08:13:07;;;;;;;22.95;10.45;;;-0.10;99.90;;;;;;5054397;28;20186;-59
2021/01/09 08:15:35;;;;;;;18.38;10.18;;;0.00;99.90;;;;;;5054238;28;20193;-59
2021/01/09 08:18:02;;;;;;;18.83;9.82;;;0.10;99.90;;;;;;5054383;28;20173;-60
2021/01/09 08:20:28;;;;;;;18.23;9.40;;;0.10;99.90;;;;;;5053934;28;20190;-60
2021/01/09 08:23:01;;;;;;;16.10;8.82;;;0.30;99.90;;;;;;5054162;28;20178;-60
2021/01/09 08:25:29;;;;;;;15.27;8.25;;;0.30;99.90;;;;;;5053782;28;20210;-59
2021/01/09 08:27:56;;;;;;;13.73;8.00;;;0.40;99.90;;;;;;5053962;28;20191;-61
2021/01/09 08:30:32;;;;;;;13.35;7.50;;;0.70;99.90;;;;;;5054404;28;20533;-59
2021/01/09 08:33:08;;;;;;;12.27;7.13;;;0.80;99.90;;;;;;5053689;28;20186;-59
2021/01/09 08:35:35;;;;;;;11.52;6.93;;;0.80;99.90;;;;;;5053965;28;20191;-60
2021/01/09 08:38:02;;;;;;;10.30;6.38;;;1.20;99.90;;;;;;5053849;28;20167;-60
2021/01/09 08:40:28;;;;;;;9.05;5.72;;;1.40;99.90;;;;;;5054409;28;20182;-60
2021/01/09 08:43:01;;;;;;;8.55;5.03;;;1.50;99.90;;;;;;5053968;28;20183;-60
2021/01/09 08:45:45;;;;;;;7.68;4.78;;;1.60;99.90;;;;;;5053081;28;20210;-60
2021/01/09 08:48:14;;;;;;;8.15;4.47;;;2.00;99.90;;;;;;5053829;28;20150;-61
2021/01/09 08:50:56;;;;;;;8.63;5.03;;;2.40;99.90;;;;;;5054157;28;20174;-60
2021/01/09 08:53:22;;;;;;;8.20;4.63;;;2.30;99.90;;;;;;5053872;28;20514;-61
2021/01/09 08:55:51;;;;;;;7.15;4.35;;;1.80;99.90;;;;;;5052809;28;20194;-60
2021/01/09 08:58:17;;;;;;;9.23;4.95;;;1.70;99.90;;;;;;5033684;28;20523;-60
2021/01/09 09:00:43;;;;;;;8.25;4.88;;;1.40;99.90;;;;;;5034384;28;20187;-60
2021/01/09 09:03:11;;;;;;;9.00;5.22;;;1.40;99.90;;;;;;5050876;28;20194;-60
2021/01/09 09:05:38;;;;;;;13.30;4.85;;;1.20;99.90;;;;;;5051516;28;20187;-60
2021/01/09 09:08:05;;;;;;;8.98;5.30;;;1.10;99.90;;;;;;5053215;28;20170;-60
2021/01/09 09:10:32;;;;;;;9.32;5.20;;;1.20;99.90;;;;;;5053607;28;20182;-60
2021/01/09 09:13:23;;;;;;;8.73;5.20;;;1.10;99.90;;;;;;5051146;28;20210;-60
2021/01/09 09:15:50;;;;;;;8.80;4.78;;;1.00;99.90;;;;;;5052603;28;20171;-60
2021/01/09 09:18:17;;;;;;;9.77;5.28;;;1.20;99.90;;;;;;5052675;28;20174;-61
2021/01/09 09:20:50;;;;;;;8.93;4.95;;;1.10;99.90;;;;;;5051101;28;20193;-60
2021/01/09 09:23:26;;;;;;;8.93;5.15;;;1.00;99.90;;;;;;5052508;28;20170;-61
2021/01/09 09:26:13;;;;;;;11.93;5.32;;;0.90;99.90;;;;;;5053562;28;20222;-60
2021/01/09 09:28:43;;;;;;;8.05;4.75;;;0.80;99.90;;;;;;5053237;28;20181;-61
2021/01/09 09:31:28;;;;;;;8.35;4.57;;;0.90;99.90;;;;;;5052709;28;20191;-61
2021/01/09 09:33:58;;;;;;;11.40;4.68;;;0.90;99.90;;;;;;5051841;28;20670;-61
2021/01/09 09:36:24;;;;;;;8.27;4.45;;;0.90;99.90;;;;;;5053160;28;20170;-61
2021/01/09 09:38:51;;;;;;;8.68;4.63;;;0.90;99.90;;;;;;5052074;28;20181;-61
2021/01/09 09:41:17;;;;;;;9.82;5.55;;;0.90;99.90;;;;;;5052116;28;20190;-60
2021/01/09 09:43:56;;;;;;;8.77;4.90;;;1.00;99.90;;;;;;5051442;28;20202;-63
2021/01/09 09:46:22;;;;;;;7.97;4.90;;;1.10;99.90;;;;;;5054423;28;20495;-60
2021/01/09 09:48:48;;;;;;;8.40;4.82;;;1.00;99.90;;;;;;5054911;28;20545;-60
2021/01/09 09:51:15;;;;;;;8.23;5.15;;;1.00;99.90;;;;;;5051328;28;20801;-60
2021/01/09 09:53:55;;;;;;;9.88;4.93;;;1.00;99.90;;;;;;5052307;28;20542;-60
2021/01/09 09:56:23;;;;;;;5.25;3.58;;;1.10;99.90;;;;;;5052678;28;20514;-60
2021/01/09 09:59:11;;;;;;;5.05;3.50;;;1.20;99.90;;;;;;5052791;28;20183;-60
2021/01/09 10:01:37;;;;;;;5.30;3.42;;;1.30;99.90;;;;;;5052796;28;20174;-61
2021/01/09 10:04:08;;;;;;;6.20;3.85;;;1.20;99.90;;;;;;5051909;28;20213;-60
2021/01/09 10:06:41;;;;;;;6.80;4.00;;;1.20;99.90;;;;;;5052614;28;20162;-60
2021/01/09 10:09:13;;;;;;;6.40;3.50;;;1.20;99.90;;;;;;5050707;28;20181;-60
2021/01/09 10:11:40;;;;;;;7.60;3.72;;;1.20;99.90;;;;;;5052656;28;20643;-60
2021/01/09 10:14:06;;;;;;;5.63;3.63;;;1.10;99.90;;;;;;5051847;28;20197;-61
2021/01/09 10:16:34;;;;;;;5.07;3.33;;;1.20;99.90;;;;;;5052264;28;20620;-61
2021/01/09 10:19:01;;;;;;;5.50;3.55;;;1.30;99.90;;;;;;5051835;28;20170;-61
2021/01/09 10:21:28;;;;;;;5.00;3.45;;;1.40;99.90;;;;;;5051777;28;20185;-60
2021/01/09 10:23:56;;;;;;;13.57;7.55;;;1.40;99.90;;;;;;5034303;28;20213;-60
2021/01/09 10:26:26;;;;;;;25.15;10.85;;;1.40;99.90;;;;;;5051832;28;20218;-60
2021/01/09 10:28:52;;;;;;;8.45;5.15;;;1.40;99.90;;;;;;5051876;28;20183;-60
2021/01/09 10:31:18;;;;;;;6.35;3.83;;;1.30;99.90;;;;;;5051960;28;20623;-61
2021/01/09 10:33:45;;;;;;;5.90;3.78;;;1.40;99.90;;;;;;5050544;28;20190;-61
2021/01/09 10:36:11;;;;;;;5.40;3.47;;;1.40;99.90;;;;;;5051600;28;20175;-60
2021/01/09 10:38:37;;;;;;;5.80;3.42;;;1.10;99.90;;;;;;5052099;28;20167;-60
2021/01/09 10:41:03;;;;;;;8.10;4.13;;;1.30;99.90;;;;;;5051313;28;20179;-60
2021/01/09 10:43:29;;;;;;;5.55;3.92;;;1.20;99.90;;;;;;5051435;28;20185;-61
2021/01/09 10:45:55;;;;;;;6.22;4.10;;;1.00;99.90;;;;;;5055786;28;20209;-60
2021/01/09 10:48:21;;;;;;;4.72;3.40;;;1.20;99.90;;;;;;5055141;28;20275;-60
2021/01/09 10:50:47;;;;;;;5.35;3.40;;;1.30;99.90;;;;;;5055599;28;20515;-60
2021/01/09 10:53:14;;;;;;;5.63;3.80;;;1.10;99.90;;;;;;5055745;28;20668;-61
2021/01/09 10:55:40;;;;;;;5.53;3.80;;;1.10;99.90;;;;;;5056057;28;20178;-60
2021/01/09 10:58:06;;;;;;;6.75;4.10;;;1.10;99.90;;;;;;5055468;28;20189;-61
2021/01/09 11:00:33;;;;;;;7.10;4.75;;;1.10;99.90;;;;;;5054298;28;20178;-61
2021/01/09 11:02:59;;;;;;;8.18;4.28;;;1.00;99.90;;;;;;5055641;28;20193;-60
2021/01/09 11:05:30;;;;;;;6.30;4.45;;;1.00;99.90;;;;;;5055768;28;20217;-60
2021/01/09 11:07:56;;;;;;;9.07;4.55;;;1.00;99.90;;;;;;5055711;28;20540;-60
2021/01/09 11:10:22;;;;;;;7.57;4.35;;;1.20;99.90;;;;;;5055908;28;20181;-60
2021/01/09 11:12:48;;;;;;;6.07;3.83;;;1.30;99.90;;;;;;5061793;28;20654;-60
2021/01/09 11:15:14;;;;;;;6.05;4.10;;;1.50;99.90;;;;;;5061514;28;20261;-60
2021/01/09 11:17:41;;;;;;;6.63;4.35;;;1.60;99.90;;;;;;5068057;28;20178;-60
2021/01/09 11:20:07;;;;;;;6.47;4.32;;;1.50;99.90;;;;;;5058433;28;20181;-60
2021/01/09 11:22:33;;;;;;;7.32;4.10;;;1.40;99.90;;;;;;5058782;28;20201;-60
2021/01/09 11:24:59;;;;;;;6.30;3.95;;;1.50;99.90;;;;;;5067518;28;20210;-60
2021/01/09 11:27:25;;;;;;;6.43;4.10;;;1.70;99.90;;;;;;5067352;28;20206;-60
2021/01/09 11:29:52;;;;;;;7.05;4.38;;;1.90;99.90;;;;;;5069060;28;20541;-60
2021/01/09 11:32:18;;;;;;;6.47;3.92;;;1.80;99.90;;;;;;5063574;28;20192;-60
2021/01/09 11:34:44;;;;;;;8.50;4.22;;;1.80;99.90;;;;;;5058267;28;20205;-60
2021/01/09 11:37:10;;;;;;;7.22;4.97;;;2.00;99.90;;;;;;5060096;28;20170;-60
2021/01/09 11:39:36;;;;;;;8.57;4.80;;;1.90;99.90;;;;;;5073792;28;20194;-60
2021/01/09 11:42:02;;;;;;;7.70;4.63;;;1.90;99.90;;;;;;5074874;28;20166;-60
2021/01/09 11:44:29;;;;;;;7.70;5.07;;;1.70;99.90;;;;;;5073798;28;20206;-60
2021/01/09 11:46:55;;;;;;;7.60;4.60;;;1.60;99.90;;;;;;5054862;28;20167;-60
2021/01/09 11:49:21;;;;;;;9.52;4.93;;;1.60;99.90;;;;;;5053184;28;20545;-60
2021/01/09 11:51:47;;;;;;;7.45;4.60;;;1.70;99.90;;;;;;5055059;28;20193;-60
2021/01/09 11:54:13;;;;;;;9.07;5.25;;;1.70;99.90;;;;;;5056507;28;20194;-60
2021/01/09 11:56:39;;;;;;;7.97;4.82;;;1.70;99.90;;;;;;5053873;28;20179;-60
2021/01/09 11:59:06;;;;;;;8.05;4.63;;;1.60;99.90;;;;;;5052331;28;20182;-60
2021/01/09 12:01:38;;;;;;;10.38;5.28;;;1.70;99.90;;;;;;5054961;28;20740;-61
2021/01/09 12:04:05;;;;;;;7.43;4.72;;;2.00;99.90;;;;;;5053880;28;20179;-61
2021/01/09 12:06:31;;;;;;;9.70;4.72;;;2.00;99.90;;;;;;5053077;28;20186;-61
2021/01/09 12:08:57;;;;;;;11.13;5.30;;;2.20;99.90;;;;;;5057174;28;20648;-61
2021/01/09 12:11:23;;;;;;;8.60;4.78;;;2.30;99.90;;;;;;5053221;28;20257;-61
2021/01/09 12:13:49;;;;;;;8.55;5.05;;;1.90;99.90;;;;;;5056847;28;20210;-61
2021/01/09 12:16:25;;;;;;;8.20;4.82;;;1.90;99.90;;;;;;5053828;28;20553;-60
2021/01/09 12:18:51;;;;;;;8.50;5.35;;;1.90;99.90;;;;;;5053650;28;20553;-61
2021/01/09 12:21:17;;;;;;;11.98;6.80;;;2.10;99.90;;;;;;5052983;28;20182;-60
2021/01/09 12:23:43;;;;;;;10.10;6.15;;;2.10;99.90;;;;;;5053711;28;20201;-60
2021/01/09 12:26:09;;;;;;;10.95;6.25;;;2.00;99.90;;;;;;5043497;28;20222;-61
2021/01/09 12:28:36;;;;;;;11.07;6.07;;;1.90;99.90;;;;;;5060907;28;20183;-61
2021/01/09 12:31:02;;;;;;;9.23;5.45;;;1.90;99.90;;;;;;5056789;28;20540;-60
2021/01/09 12:33:28;;;;;;;9.90;5.18;;;1.80;99.90;;;;;;5054100;28;20182;-60
2021/01/09 12:35:54;;;;;;;9.10;5.45;;;1.60;99.90;;;;;;5054178;28;20612;-60
2021/01/09 12:38:20;;;;;;;10.45;6.00;;;1.90;99.90;;;;;;5046355;28;20571;-61
2021/01/09 12:40:47;;;;;;;9.82;5.65;;;1.80;99.90;;;;;;5042722;28;20647;-60
2021/01/09 12:43:13;;;;;;;10.20;5.63;;;1.70;99.90;;;;;;5043504;28;20183;-60
2021/01/09 12:45:39;;;;;;;11.02;6.40;;;1.60;99.90;;;;;;5041755;28;20209;-56
2021/01/09 12:48:06;;;;;;;12.20;5.53;;;1.40;99.90;;;;;;5044144;28;20174;-69
2021/01/09 12:50:32;;;;;;;12.02;6.63;;;1.50;99.90;;;;;;5038104;28;20201;-60
2021/01/09 12:52:58;;;;;;;15.38;7.85;;;1.30;99.90;;;;;;5052433;28;20649;-60
2021/01/09 12:55:24;;;;;;;11.90;6.72;;;1.50;99.90;;;;;;5050839;28;20183;-60